sensor_id;sensor_type;location;lat;lon;timestamp;P1;durP1;ratioP1;P2;durP2;ratioP2
24867;SDS011;12941;48.698;9.310;2024-03-29T00:00:15;4;;;2.4;;
24867;SDS011;12941;48.698;9.310;2024-03-29T00:01:15;4;;;2.4;;
24867;SDS011;12941;48.698;9.310;2024-03-29T00:02:20;4;;;2.4;;
24867;SDS011;12941;48.698;9.310;2024-03-29T00:03:20;3.9;;;2.7;;
24867;SDS011;12941;48.698;9.310;2024-03-29T00:04:20;3.9;;;2.7;;
24867;SDS011;12941;48.698;9.310;2024-03-29T00:05:20;3.9;;;2.7;;
24867;SDS011;12941;48.698;9.310;2024-03-29T00:06:25;3.9;;;2.7;;
24867;SDS011;12941;48.698;9.310;2024-03-29T00:07:25;3.9;;;2.7;;
24867;SDS011;12941;48.698;9.310;2024-03-29T00:08:30;4.9;;;2.1;;
24867;SDS011;12941;48.698;9.310;2024-03-29T00:09:30;4.9;;;2.1;;
24867;SDS011;12941;48.698;9.310;2024-03-29T00:10:35;4.9;;;2.1;;
24867;SDS011;12941;48.698;9.310;2024-03-29T00:11:40;4.9;;;2.1;;
24867;SDS011;12941;48.698;9.310;2024-03-29T00:12:40;7.8;;;4;;
24867;SDS011;12941;48.698;9.310;2024-03-29T00:13:45;7.8;;;4;;
24867;SDS011;12941;48.698;9.310;2024-03-29T00:14:50;7.8;;;4;;
24867;SDS011;12941;48.698;9.310;2024-03-29T00:15:51;7.8;;;4;;
24867;SDS011;12941;48.698;9.310;2024-03-29T00:16:50;7.8;;;4;;
24867;SDS011;12941;48.698;9.310;2024-03-29T00:17:55;6.1;;;2.9;;
24867;SDS011;12941;48.698;9.310;2024-03-29T00:18:55;6.1;;;2.9;;
24867;SDS011;12941;48.698;9.310;2024-03-29T00:19:55;6.1;;;2.9;;
24867;SDS011;12941;48.698;9.310;2024-03-29T00:21:00;6.1;;;2.9;;
24867;SDS011;12941;48.698;9.310;2024-03-29T00:22:05;6.1;;;2.9;;
24867;SDS011;12941;48.698;9.310;2024-03-29T00:23:10;4.5;;;2.6;;
24867;SDS011;12941;48.698;9.310;2024-03-29T00:24:10;4.5;;;2.6;;
24867;SDS011;12941;48.698;9.310;2024-03-29T00:25:15;4.5;;;2.6;;
24867;SDS011;12941;48.698;9.310;2024-03-29T00:26:20;4.5;;;2.6;;
24867;SDS011;12941;48.698;9.310;2024-03-29T00:27:20;4.5;;;2.6;;
24867;SDS011;12941;48.698;9.310;2024-03-29T00:28:25;4;;;2.3;;
24867;SDS011;12941;48.698;9.310;2024-03-29T00:29:25;4;;;2.3;;
24867;SDS011;12941;48.698;9.310;2024-03-29T00:30:25;4;;;2.3;;
24867;SDS011;12941;48.698;9.310;2024-03-29T00:31:30;4;;;2.3;;
24867;SDS011;12941;48.698;9.310;2024-03-29T00:32:33;3;;;1.5;;
24867;SDS011;12941;48.698;9.310;2024-03-29T00:33:35;3;;;1.5;;
24867;SDS011;12941;48.698;9.310;2024-03-29T00:34:40;3;;;1.5;;
24867;SDS011;12941;48.698;9.310;2024-03-29T00:35:45;3;;;1.5;;
24867;SDS011;12941;48.698;9.310;2024-03-29T00:36:50;3;;;1.5;;
24867;SDS011;12941;48.698;9.310;2024-03-29T00:37:55;2.4;;;1.6;;
24867;SDS011;12941;48.698;9.310;2024-03-29T00:39:00;2.4;;;1.6;;
24867;SDS011;12941;48.698;9.310;2024-03-29T00:40:00;2.4;;;1.6;;
24867;SDS011;12941;48.698;9.310;2024-03-29T00:41:06;2.4;;;1.6;;
24867;SDS011;12941;48.698;9.310;2024-03-29T00:42:10;2.4;;;1.6;;
24867;SDS011;12941;48.698;9.310;2024-03-29T00:43:15;3.1;;;1.6;;
24867;SDS011;12941;48.698;9.310;2024-03-29T00:44:20;3.1;;;1.6;;
24867;SDS011;12941;48.698;9.310;2024-03-29T00:45:20;3.1;;;1.6;;
24867;SDS011;12941;48.698;9.310;2024-03-29T00:46:25;3.1;;;1.6;;
24867;SDS011;12941;48.698;9.310;2024-03-29T00:47:25;3.1;;;1.6;;
24867;SDS011;12941;48.698;9.310;2024-03-29T00:48:26;2.4;;;1.8;;
24867;SDS011;12941;48.698;9.310;2024-03-29T00:49:30;2.4;;;1.8;;
24867;SDS011;12941;48.698;9.310;2024-03-29T00:50:35;2.4;;;1.8;;
24867;SDS011;12941;48.698;9.310;2024-03-29T00:51:35;2.4;;;1.8;;
24867;SDS011;12941;48.698;9.310;2024-03-29T00:52:40;2.8;;;2.1;;
24867;SDS011;12941;48.698;9.310;2024-03-29T00:53:45;2.8;;;2.1;;
24867;SDS011;12941;48.698;9.310;2024-03-29T00:54:45;2.8;;;2.1;;
24867;SDS011;12941;48.698;9.310;2024-03-29T00:55:50;2.8;;;2.1;;
24867;SDS011;12941;48.698;9.310;2024-03-29T00:56:55;2.8;;;2.1;;
24867;SDS011;12941;48.698;9.310;2024-03-29T00:57:55;2.8;;;2.1;;
24867;SDS011;12941;48.698;9.310;2024-03-29T00:59:00;2.8;;;2.1;;
24867;SDS011;12941;48.698;9.310;2024-03-29T01:00:06;2.8;;;2.1;;
24867;SDS011;12941;48.698;9.310;2024-03-29T01:01:06;2.8;;;2.1;;
24867;SDS011;12941;48.698;9.310;2024-03-29T01:02:10;2.8;;;2.1;;
24867;SDS011;12941;48.698;9.310;2024-03-29T01:03:16;2.8;;;2.2;;
24867;SDS011;12941;48.698;9.310;2024-03-29T01:04:20;2.8;;;2.2;;
24867;SDS011;12941;48.698;9.310;2024-03-29T01:05:25;2.8;;;2.2;;
24867;SDS011;12941;48.698;9.310;2024-03-29T01:06:25;2.8;;;2.2;;
24867;SDS011;12941;48.698;9.310;2024-03-29T01:07:30;3.4;;;2.2;;
24867;SDS011;12941;48.698;9.310;2024-03-29T01:08:30;3.4;;;2.2;;
24867;SDS011;12941;48.698;9.310;2024-03-29T01:09:35;3.4;;;2.2;;
24867;SDS011;12941;48.698;9.310;2024-03-29T01:10:35;3.4;;;2.2;;
24867;SDS011;12941;48.698;9.310;2024-03-29T01:11:35;3.4;;;2.2;;
24867;SDS011;12941;48.698;9.310;2024-03-29T01:12:36;3.8;;;1.9;;
24867;SDS011;12941;48.698;9.310;2024-03-29T01:13:40;3.8;;;1.9;;
24867;SDS011;12941;48.698;9.310;2024-03-29T01:14:46;3.8;;;1.9;;
24867;SDS011;12941;48.698;9.310;2024-03-29T01:15:46;3.8;;;1.9;;
24867;SDS011;12941;48.698;9.310;2024-03-29T01:16:51;3.8;;;1.9;;
24867;SDS011;12941;48.698;9.310;2024-03-29T01:17:56;2.4;;;1.7;;
24867;SDS011;12941;48.698;9.310;2024-03-29T01:19:00;2.4;;;1.7;;
24867;SDS011;12941;48.698;9.310;2024-03-29T01:20:06;2.4;;;1.7;;
24867;SDS011;12941;48.698;9.310;2024-03-29T01:21:06;2.4;;;1.7;;
24867;SDS011;12941;48.698;9.310;2024-03-29T01:22:11;2.4;;;1.7;;
24867;SDS011;12941;48.698;9.310;2024-03-29T01:23:11;2.7;;;1.8;;
24867;SDS011;12941;48.698;9.310;2024-03-29T01:24:11;2.7;;;1.8;;
24867;SDS011;12941;48.698;9.310;2024-03-29T01:25:16;2.7;;;1.8;;
24867;SDS011;12941;48.698;9.310;2024-03-29T01:26:16;2.7;;;1.8;;
24867;SDS011;12941;48.698;9.310;2024-03-29T01:27:21;2.7;;;1.8;;
24867;SDS011;12941;48.698;9.310;2024-03-29T01:28:26;1.9;;;1.4;;
24867;SDS011;12941;48.698;9.310;2024-03-29T01:29:26;1.9;;;1.4;;
24867;SDS011;12941;48.698;9.310;2024-03-29T01:30:31;1.9;;;1.4;;
24867;SDS011;12941;48.698;9.310;2024-03-29T01:31:31;1.9;;;1.4;;
24867;SDS011;12941;48.698;9.310;2024-03-29T01:32:33;1.7;;;1.2;;
24867;SDS011;12941;48.698;9.310;2024-03-29T01:33:36;1.7;;;1.2;;
24867;SDS011;12941;48.698;9.310;2024-03-29T01:34:41;1.7;;;1.2;;
24867;SDS011;12941;48.698;9.310;2024-03-29T01:35:41;1.7;;;1.2;;
24867;SDS011;12941;48.698;9.310;2024-03-29T01:36:41;1.7;;;1.2;;
24867;SDS011;12941;48.698;9.310;2024-03-29T01:37:46;1.3;;;1.2;;
24867;SDS011;12941;48.698;9.310;2024-03-29T01:38:51;1.3;;;1.2;;
24867;SDS011;12941;48.698;9.310;2024-03-29T01:39:56;1.3;;;1.2;;
24867;SDS011;12941;48.698;9.310;2024-03-29T01:41:01;1.3;;;1.2;;
24867;SDS011;12941;48.698;9.310;2024-03-29T01:42:06;1.3;;;1.2;;
24867;SDS011;12941;48.698;9.310;2024-03-29T01:43:06;5;;;2.1;;
24867;SDS011;12941;48.698;9.310;2024-03-29T01:44:06;5;;;2.1;;
24867;SDS011;12941;48.698;9.310;2024-03-29T01:45:11;5;;;2.1;;
24867;SDS011;12941;48.698;9.310;2024-03-29T01:46:11;5;;;2.1;;
24867;SDS011;12941;48.698;9.310;2024-03-29T01:47:11;5;;;2.1;;
24867;SDS011;12941;48.698;9.310;2024-03-29T01:48:17;1.3;;;1.2;;
24867;SDS011;12941;48.698;9.310;2024-03-29T01:49:21;1.3;;;1.2;;
24867;SDS011;12941;48.698;9.310;2024-03-29T01:50:21;1.3;;;1.2;;
24867;SDS011;12941;48.698;9.310;2024-03-29T01:51:26;1.3;;;1.2;;
24867;SDS011;12941;48.698;9.310;2024-03-29T01:52:26;1.3;;;1.2;;
24867;SDS011;12941;48.698;9.310;2024-03-29T01:53:26;5.1;;;3.4;;
24867;SDS011;12941;48.698;9.310;2024-03-29T01:54:31;5.1;;;3.4;;
24867;SDS011;12941;48.698;9.310;2024-03-29T01:55:36;5.1;;;3.4;;
24867;SDS011;12941;48.698;9.310;2024-03-29T01:56:41;5.1;;;3.4;;
24867;SDS011;12941;48.698;9.310;2024-03-29T01:57:41;8.3;;;4.2;;
24867;SDS011;12941;48.698;9.310;2024-03-29T01:58:41;8.3;;;4.2;;
24867;SDS011;12941;48.698;9.310;2024-03-29T01:59:46;8.3;;;4.2;;
24867;SDS011;12941;48.698;9.310;2024-03-29T02:00:52;8.3;;;4.2;;
24867;SDS011;12941;48.698;9.310;2024-03-29T02:01:56;8.3;;;4.2;;
24867;SDS011;12941;48.698;9.310;2024-03-29T02:02:56;3.6;;;2.5;;
24867;SDS011;12941;48.698;9.310;2024-03-29T02:04:01;3.6;;;2.5;;
24867;SDS011;12941;48.698;9.310;2024-03-29T02:05:01;3.6;;;2.5;;
24867;SDS011;12941;48.698;9.310;2024-03-29T02:06:06;3.6;;;2.5;;
24867;SDS011;12941;48.698;9.310;2024-03-29T02:07:06;3.6;;;2.5;;
24867;SDS011;12941;48.698;9.310;2024-03-29T02:08:06;2.6;;;1.3;;
24867;SDS011;12941;48.698;9.310;2024-03-29T02:09:06;2.6;;;1.3;;
24867;SDS011;12941;48.698;9.310;2024-03-29T02:10:11;2.6;;;1.3;;
24867;SDS011;12941;48.698;9.310;2024-03-29T02:11:11;2.6;;;1.3;;
24867;SDS011;12941;48.698;9.310;2024-03-29T02:12:11;2.6;;;1.3;;
24867;SDS011;12941;48.698;9.310;2024-03-29T02:13:16;2;;;1;;
24867;SDS011;12941;48.698;9.310;2024-03-29T02:14:16;2;;;1;;
24867;SDS011;12941;48.698;9.310;2024-03-29T02:15:21;2;;;1;;
24867;SDS011;12941;48.698;9.310;2024-03-29T02:16:26;2;;;1;;
24867;SDS011;12941;48.698;9.310;2024-03-29T02:17:32;1.6;;;0.9;;
24867;SDS011;12941;48.698;9.310;2024-03-29T02:18:36;1.3;;;0.9;;
24867;SDS011;12941;48.698;9.310;2024-03-29T02:19:36;1.3;;;0.9;;
24867;SDS011;12941;48.698;9.310;2024-03-29T02:20:41;1.3;;;0.9;;
24867;SDS011;12941;48.698;9.310;2024-03-29T02:21:47;1.3;;;0.9;;
24867;SDS011;12941;48.698;9.310;2024-03-29T02:22:54;1;;;0.8;;
24867;SDS011;12941;48.698;9.310;2024-03-29T02:23:57;1;;;0.8;;
24867;SDS011;12941;48.698;9.310;2024-03-29T02:24:51;1;;;0.8;;
24867;SDS011;12941;48.698;9.310;2024-03-29T02:25:51;1;;;0.8;;
24867;SDS011;12941;48.698;9.310;2024-03-29T02:26:51;1;;;0.8;;
24867;SDS011;12941;48.698;9.310;2024-03-29T02:27:51;0.7;;;0.7;;
24867;SDS011;12941;48.698;9.310;2024-03-29T02:28:51;0.7;;;0.7;;
24867;SDS011;12941;48.698;9.310;2024-03-29T02:30:23;0.7;;;0.7;;
24867;SDS011;12941;48.698;9.310;2024-03-29T02:30:57;0.7;;;0.7;;
24867;SDS011;12941;48.698;9.310;2024-03-29T02:32:02;0.7;;;0.7;;
24867;SDS011;12941;48.698;9.310;2024-03-29T02:33:01;0.6;;;0.6;;
24867;SDS011;12941;48.698;9.310;2024-03-29T02:34:06;0.6;;;0.6;;
24867;SDS011;12941;48.698;9.310;2024-03-29T02:35:07;0.6;;;0.6;;
24867;SDS011;12941;48.698;9.310;2024-03-29T02:36:07;0.6;;;0.6;;
24867;SDS011;12941;48.698;9.310;2024-03-29T02:37:11;0.6;;;0.6;;
24867;SDS011;12941;48.698;9.310;2024-03-29T02:38:12;2.1;;;1.1;;
24867;SDS011;12941;48.698;9.310;2024-03-29T02:39:17;2.1;;;1.1;;
24867;SDS011;12941;48.698;9.310;2024-03-29T02:40:22;2.1;;;1.1;;
24867;SDS011;12941;48.698;9.310;2024-03-29T02:41:27;2.1;;;1.1;;
24867;SDS011;12941;48.698;9.310;2024-03-29T02:42:31;1.7;;;1.1;;
24867;SDS011;12941;48.698;9.310;2024-03-29T02:43:32;1.7;;;1.1;;
24867;SDS011;12941;48.698;9.310;2024-03-29T02:44:37;1.7;;;1.1;;
24867;SDS011;12941;48.698;9.310;2024-03-29T02:45:42;1.7;;;1.1;;
24867;SDS011;12941;48.698;9.310;2024-03-29T02:46:42;1.7;;;1.1;;
24867;SDS011;12941;48.698;9.310;2024-03-29T02:47:42;2.5;;;1;;
24867;SDS011;12941;48.698;9.310;2024-03-29T02:48:47;2.5;;;1;;
24867;SDS011;12941;48.698;9.310;2024-03-29T02:49:47;2.5;;;1;;
24867;SDS011;12941;48.698;9.310;2024-03-29T02:50:52;2.5;;;1;;
24867;SDS011;12941;48.698;9.310;2024-03-29T02:51:52;2.5;;;1;;
24867;SDS011;12941;48.698;9.310;2024-03-29T02:52:57;2.1;;;1.5;;
24867;SDS011;12941;48.698;9.310;2024-03-29T02:53:57;2.1;;;1.5;;
24867;SDS011;12941;48.698;9.310;2024-03-29T02:55:02;2.1;;;1.5;;
24867;SDS011;12941;48.698;9.310;2024-03-29T02:56:02;2.1;;;1.5;;
24867;SDS011;12941;48.698;9.310;2024-03-29T02:57:07;2.1;;;1.5;;
24867;SDS011;12941;48.698;9.310;2024-03-29T02:58:12;2.7;;;1.4;;
24867;SDS011;12941;48.698;9.310;2024-03-29T02:59:17;2.7;;;1.4;;
24867;SDS011;12941;48.698;9.310;2024-03-29T03:00:22;2.7;;;1.4;;
24867;SDS011;12941;48.698;9.310;2024-03-29T03:01:27;2.7;;;1.4;;
24867;SDS011;12941;48.698;9.310;2024-03-29T03:02:32;2.7;;;1.4;;
24867;SDS011;12941;48.698;9.310;2024-03-29T03:03:32;2.7;;;1.4;;
24867;SDS011;12941;48.698;9.310;2024-03-29T03:04:37;2.7;;;1.4;;
24867;SDS011;12941;48.698;9.310;2024-03-29T03:05:37;2.7;;;1.4;;
24867;SDS011;12941;48.698;9.310;2024-03-29T03:06:37;2.7;;;1.4;;
24867;SDS011;12941;48.698;9.310;2024-03-29T03:07:42;2.2;;;1;;
24867;SDS011;12941;48.698;9.310;2024-03-29T03:08:47;2.2;;;1;;
24867;SDS011;12941;48.698;9.310;2024-03-29T03:09:47;2.2;;;1;;
24867;SDS011;12941;48.698;9.310;2024-03-29T03:10:52;2.2;;;1;;
24867;SDS011;12941;48.698;9.310;2024-03-29T03:11:52;2.2;;;1;;
24867;SDS011;12941;48.698;9.310;2024-03-29T03:12:52;1.1;;;0.8;;
24867;SDS011;12941;48.698;9.310;2024-03-29T03:13:57;1.1;;;0.8;;
24867;SDS011;12941;48.698;9.310;2024-03-29T03:15:02;1.1;;;0.8;;
24867;SDS011;12941;48.698;9.310;2024-03-29T03:16:07;1.1;;;0.8;;
24867;SDS011;12941;48.698;9.310;2024-03-29T03:17:07;1.1;;;0.8;;
24867;SDS011;12941;48.698;9.310;2024-03-29T03:18:12;0.9;;;0.8;;
24867;SDS011;12941;48.698;9.310;2024-03-29T03:19:12;0.9;;;0.8;;
24867;SDS011;12941;48.698;9.310;2024-03-29T03:20:12;0.9;;;0.8;;
24867;SDS011;12941;48.698;9.310;2024-03-29T03:21:12;0.9;;;0.8;;
24867;SDS011;12941;48.698;9.310;2024-03-29T03:22:17;0.9;;;0.8;;
24867;SDS011;12941;48.698;9.310;2024-03-29T03:23:17;0.8;;;0.8;;
24867;SDS011;12941;48.698;9.310;2024-03-29T03:24:22;0.8;;;0.8;;
24867;SDS011;12941;48.698;9.310;2024-03-29T03:25:22;0.8;;;0.8;;
24867;SDS011;12941;48.698;9.310;2024-03-29T03:26:22;0.8;;;0.8;;
24867;SDS011;12941;48.698;9.310;2024-03-29T03:27:27;0.8;;;0.8;;
24867;SDS011;12941;48.698;9.310;2024-03-29T03:28:27;1.6;;;0.7;;
24867;SDS011;12941;48.698;9.310;2024-03-29T03:29:32;1.6;;;0.7;;
24867;SDS011;12941;48.698;9.310;2024-03-29T03:30:32;1.6;;;0.7;;
24867;SDS011;12941;48.698;9.310;2024-03-29T03:31:37;1.6;;;0.7;;
24867;SDS011;12941;48.698;9.310;2024-03-29T03:32:37;1.1;;;1.1;;
24867;SDS011;12941;48.698;9.310;2024-03-29T03:33:42;1.1;;;1.1;;
24867;SDS011;12941;48.698;9.310;2024-03-29T03:34:42;1.1;;;1.1;;
24867;SDS011;12941;48.698;9.310;2024-03-29T03:35:42;1.1;;;1.1;;
24867;SDS011;12941;48.698;9.310;2024-03-29T03:36:47;1.1;;;1.1;;
24867;SDS011;12941;48.698;9.310;2024-03-29T03:37:47;1.9;;;1.1;;
24867;SDS011;12941;48.698;9.310;2024-03-29T03:38:47;1.9;;;1.1;;
24867;SDS011;12941;48.698;9.310;2024-03-29T03:39:52;1.9;;;1.1;;
24867;SDS011;12941;48.698;9.310;2024-03-29T03:40:52;1.9;;;1.1;;
24867;SDS011;12941;48.698;9.310;2024-03-29T03:41:57;1.9;;;1.1;;
24867;SDS011;12941;48.698;9.310;2024-03-29T03:42:57;2;;;0.9;;
24867;SDS011;12941;48.698;9.310;2024-03-29T03:44:02;2;;;0.9;;
24867;SDS011;12941;48.698;9.310;2024-03-29T03:45:02;2;;;0.9;;
24867;SDS011;12941;48.698;9.310;2024-03-29T03:46:07;2;;;0.9;;
24867;SDS011;12941;48.698;9.310;2024-03-29T03:47:12;2;;;0.9;;
24867;SDS011;12941;48.698;9.310;2024-03-29T03:48:12;1.1;;;0.7;;
24867;SDS011;12941;48.698;9.310;2024-03-29T03:49:12;1.1;;;0.7;;
24867;SDS011;12941;48.698;9.310;2024-03-29T03:50:17;1.1;;;0.7;;
24867;SDS011;12941;48.698;9.310;2024-03-29T03:51:17;1.1;;;0.7;;
24867;SDS011;12941;48.698;9.310;2024-03-29T03:52:22;1.1;;;0.7;;
24867;SDS011;12941;48.698;9.310;2024-03-29T03:53:22;1.3;;;0.8;;
24867;SDS011;12941;48.698;9.310;2024-03-29T03:54:27;1.3;;;0.8;;
24867;SDS011;12941;48.698;9.310;2024-03-29T03:55:27;1.3;;;0.8;;
24867;SDS011;12941;48.698;9.310;2024-03-29T03:56:32;1.3;;;0.8;;
24867;SDS011;12941;48.698;9.310;2024-03-29T03:57:33;1.1;;;0.6;;
24867;SDS011;12941;48.698;9.310;2024-03-29T03:58:37;1.1;;;0.6;;
24867;SDS011;12941;48.698;9.310;2024-03-29T03:59:37;1.1;;;0.6;;
24867;SDS011;12941;48.698;9.310;2024-03-29T04:00:42;1.1;;;0.6;;
24867;SDS011;12941;48.698;9.310;2024-03-29T04:01:42;1.1;;;0.6;;
24867;SDS011;12941;48.698;9.310;2024-03-29T04:02:42;1.4;;;1.3;;
24867;SDS011;12941;48.698;9.310;2024-03-29T04:03:42;1.4;;;1.3;;
24867;SDS011;12941;48.698;9.310;2024-03-29T04:04:42;1.4;;;1.3;;
24867;SDS011;12941;48.698;9.310;2024-03-29T04:05:42;1.4;;;1.3;;
24867;SDS011;12941;48.698;9.310;2024-03-29T04:06:47;1.4;;;1.3;;
24867;SDS011;12941;48.698;9.310;2024-03-29T04:07:52;0.8;;;0.6;;
24867;SDS011;12941;48.698;9.310;2024-03-29T04:08:52;0.8;;;0.6;;
24867;SDS011;12941;48.698;9.310;2024-03-29T04:09:57;0.8;;;0.6;;
24867;SDS011;12941;48.698;9.310;2024-03-29T04:10:57;0.8;;;0.6;;
24867;SDS011;12941;48.698;9.310;2024-03-29T04:12:02;0.8;;;0.6;;
24867;SDS011;12941;48.698;9.310;2024-03-29T04:13:07;3.4;;;1.4;;
24867;SDS011;12941;48.698;9.310;2024-03-29T04:14:13;3.4;;;1.4;;
24867;SDS011;12941;48.698;9.310;2024-03-29T04:15:17;3.4;;;1.4;;
24867;SDS011;12941;48.698;9.310;2024-03-29T04:16:17;3.4;;;1.4;;
24867;SDS011;12941;48.698;9.310;2024-03-29T04:17:22;3.4;;;1.4;;
24867;SDS011;12941;48.698;9.310;2024-03-29T04:18:27;1.1;;;0.9;;
24867;SDS011;12941;48.698;9.310;2024-03-29T04:19:27;1.1;;;0.9;;
24867;SDS011;12941;48.698;9.310;2024-03-29T04:20:27;1.1;;;0.9;;
24867;SDS011;12941;48.698;9.310;2024-03-29T04:21:33;1.1;;;0.9;;
24867;SDS011;12941;48.698;9.310;2024-03-29T04:22:33;0.7;;;0.7;;
24867;SDS011;12941;48.698;9.310;2024-03-29T04:23:37;0.7;;;0.7;;
24867;SDS011;12941;48.698;9.310;2024-03-29T04:24:42;0.7;;;0.7;;
24867;SDS011;12941;48.698;9.310;2024-03-29T04:25:50;0.7;;;0.7;;
24867;SDS011;12941;48.698;9.310;2024-03-29T04:26:42;0.7;;;0.7;;
24867;SDS011;12941;48.698;9.310;2024-03-29T04:27:47;1.3;;;1.2;;
24867;SDS011;12941;48.698;9.310;2024-03-29T04:28:52;1.3;;;1.2;;
24867;SDS011;12941;48.698;9.310;2024-03-29T04:29:53;1.3;;;1.2;;
24867;SDS011;12941;48.698;9.310;2024-03-29T04:30:58;1.3;;;1.2;;
24867;SDS011;12941;48.698;9.310;2024-03-29T04:31:57;1.3;;;1.2;;
24867;SDS011;12941;48.698;9.310;2024-03-29T04:33:03;1.2;;;1.1;;
24867;SDS011;12941;48.698;9.310;2024-03-29T04:34:02;1.2;;;1.1;;
24867;SDS011;12941;48.698;9.310;2024-03-29T04:35:03;1.2;;;1.1;;
24867;SDS011;12941;48.698;9.310;2024-03-29T04:36:07;1.2;;;1.1;;
24867;SDS011;12941;48.698;9.310;2024-03-29T04:37:12;1.2;;;1.1;;
24867;SDS011;12941;48.698;9.310;2024-03-29T04:38:12;1.1;;;1;;
24867;SDS011;12941;48.698;9.310;2024-03-29T04:39:17;1.1;;;1;;
24867;SDS011;12941;48.698;9.310;2024-03-29T04:40:17;1.1;;;1;;
24867;SDS011;12941;48.698;9.310;2024-03-29T04:41:17;1.1;;;1;;
24867;SDS011;12941;48.698;9.310;2024-03-29T04:42:23;1.1;;;1;;
24867;SDS011;12941;48.698;9.310;2024-03-29T04:43:23;1.2;;;1.1;;
24867;SDS011;12941;48.698;9.310;2024-03-29T04:44:27;1.2;;;1.1;;
24867;SDS011;12941;48.698;9.310;2024-03-29T04:45:32;1.2;;;1.1;;
24867;SDS011;12941;48.698;9.310;2024-03-29T04:46:33;1.2;;;1.1;;
24867;SDS011;12941;48.698;9.310;2024-03-29T04:47:33;1.2;;;1;;
24867;SDS011;12941;48.698;9.310;2024-03-29T04:48:37;1.2;;;1;;
24867;SDS011;12941;48.698;9.310;2024-03-29T04:49:42;1.2;;;1;;
24867;SDS011;12941;48.698;9.310;2024-03-29T04:50:47;1.2;;;1;;
24867;SDS011;12941;48.698;9.310;2024-03-29T04:51:48;1.2;;;1;;
24867;SDS011;12941;48.698;9.310;2024-03-29T04:52:47;1.2;;;1.1;;
24867;SDS011;12941;48.698;9.310;2024-03-29T04:53:53;1.2;;;1.1;;
24867;SDS011;12941;48.698;9.310;2024-03-29T04:54:57;1.2;;;1.1;;
24867;SDS011;12941;48.698;9.310;2024-03-29T04:55:57;1.2;;;1.1;;
24867;SDS011;12941;48.698;9.310;2024-03-29T04:56:59;1.2;;;1.1;;
24867;SDS011;12941;48.698;9.310;2024-03-29T04:57:58;2.1;;;1;;
24867;SDS011;12941;48.698;9.310;2024-03-29T04:59:03;2.1;;;1;;
24867;SDS011;12941;48.698;9.310;2024-03-29T05:00:08;2.1;;;1;;
24867;SDS011;12941;48.698;9.310;2024-03-29T05:01:07;2.1;;;1;;
24867;SDS011;12941;48.698;9.310;2024-03-29T05:02:12;2.1;;;1;;
24867;SDS011;12941;48.698;9.310;2024-03-29T05:03:18;1.2;;;1.1;;
24867;SDS011;12941;48.698;9.310;2024-03-29T05:04:23;1.2;;;1.1;;
24867;SDS011;12941;48.698;9.310;2024-03-29T05:05:23;1.2;;;1.1;;
24867;SDS011;12941;48.698;9.310;2024-03-29T05:06:23;1.2;;;1.1;;
24867;SDS011;12941;48.698;9.310;2024-03-29T05:07:27;1.2;;;1.1;;
24867;SDS011;12941;48.698;9.310;2024-03-29T05:08:28;1.7;;;1;;
24867;SDS011;12941;48.698;9.310;2024-03-29T05:09:32;1.7;;;1;;
24867;SDS011;12941;48.698;9.310;2024-03-29T05:10:33;1.7;;;1;;
24867;SDS011;12941;48.698;9.310;2024-03-29T05:11:38;1.7;;;1;;
24867;SDS011;12941;48.698;9.310;2024-03-29T05:12:42;2.2;;;1;;
24867;SDS011;12941;48.698;9.310;2024-03-29T05:13:43;2.2;;;1;;
24867;SDS011;12941;48.698;9.310;2024-03-29T05:14:48;2.2;;;1;;
24867;SDS011;12941;48.698;9.310;2024-03-29T05:15:53;2.2;;;1;;
24867;SDS011;12941;48.698;9.310;2024-03-29T05:16:58;2.2;;;1;;
24867;SDS011;12941;48.698;9.310;2024-03-29T05:18:03;1.6;;;1;;
24867;SDS011;12941;48.698;9.310;2024-03-29T05:19:08;1.6;;;1;;
24867;SDS011;12941;48.698;9.310;2024-03-29T05:20:13;1.6;;;1;;
24867;SDS011;12941;48.698;9.310;2024-03-29T05:21:18;1.6;;;1;;
24867;SDS011;12941;48.698;9.310;2024-03-29T05:22:18;1.6;;;1;;
24867;SDS011;12941;48.698;9.310;2024-03-29T05:23:23;1.4;;;1;;
24867;SDS011;12941;48.698;9.310;2024-03-29T05:24:23;1.4;;;1;;
24867;SDS011;12941;48.698;9.310;2024-03-29T05:25:28;1.4;;;1;;
24867;SDS011;12941;48.698;9.310;2024-03-29T05:26:28;1.4;;;1;;
24867;SDS011;12941;48.698;9.310;2024-03-29T05:27:28;1.4;;;1;;
24867;SDS011;12941;48.698;9.310;2024-03-29T05:28:33;1.8;;;0.9;;
24867;SDS011;12941;48.698;9.310;2024-03-29T05:29:33;1.8;;;0.9;;
24867;SDS011;12941;48.698;9.310;2024-03-29T05:30:38;1.8;;;0.9;;
24867;SDS011;12941;48.698;9.310;2024-03-29T05:31:38;1.8;;;0.9;;
24867;SDS011;12941;48.698;9.310;2024-03-29T05:32:43;1;;;0.9;;
24867;SDS011;12941;48.698;9.310;2024-03-29T05:33:48;1;;;0.9;;
24867;SDS011;12941;48.698;9.310;2024-03-29T05:34:48;1;;;0.9;;
24867;SDS011;12941;48.698;9.310;2024-03-29T05:35:53;1;;;0.9;;
24867;SDS011;12941;48.698;9.310;2024-03-29T05:36:53;1;;;0.9;;
24867;SDS011;12941;48.698;9.310;2024-03-29T05:37:58;1.2;;;0.9;;
24867;SDS011;12941;48.698;9.310;2024-03-29T05:38:58;1.2;;;0.9;;
24867;SDS011;12941;48.698;9.310;2024-03-29T05:39:58;1.2;;;0.9;;
24867;SDS011;12941;48.698;9.310;2024-03-29T05:41:03;1.2;;;0.9;;
24867;SDS011;12941;48.698;9.310;2024-03-29T05:42:03;1.2;;;0.9;;
24867;SDS011;12941;48.698;9.310;2024-03-29T05:43:08;2.2;;;1;;
24867;SDS011;12941;48.698;9.310;2024-03-29T05:44:08;2.2;;;1;;
24867;SDS011;12941;48.698;9.310;2024-03-29T05:45:22;2.2;;;1;;
24867;SDS011;12941;48.698;9.310;2024-03-29T05:46:18;2.2;;;1;;
24867;SDS011;12941;48.698;9.310;2024-03-29T05:47:18;2.2;;;1;;
24867;SDS011;12941;48.698;9.310;2024-03-29T05:48:23;1.1;;;0.9;;
24867;SDS011;12941;48.698;9.310;2024-03-29T05:49:28;1.1;;;0.9;;
24867;SDS011;12941;48.698;9.310;2024-03-29T05:50:33;1.1;;;0.9;;
24867;SDS011;12941;48.698;9.310;2024-03-29T05:51:38;1.1;;;0.9;;
24867;SDS011;12941;48.698;9.310;2024-03-29T05:52:38;1.7;;;1;;
24867;SDS011;12941;48.698;9.310;2024-03-29T05:53:43;1.7;;;1;;
24867;SDS011;12941;48.698;9.310;2024-03-29T05:54:48;1.7;;;1;;
24867;SDS011;12941;48.698;9.310;2024-03-29T05:55:48;1.7;;;1;;
24867;SDS011;12941;48.698;9.310;2024-03-29T05:56:53;1.7;;;1;;
24867;SDS011;12941;48.698;9.310;2024-03-29T05:57:53;0.9;;;0.9;;
24867;SDS011;12941;48.698;9.310;2024-03-29T05:58:58;0.9;;;0.9;;
24867;SDS011;12941;48.698;9.310;2024-03-29T06:00:03;0.9;;;0.9;;
24867;SDS011;12941;48.698;9.310;2024-03-29T06:01:08;0.9;;;0.9;;
24867;SDS011;12941;48.698;9.310;2024-03-29T06:02:13;0.9;;;0.9;;
24867;SDS011;12941;48.698;9.310;2024-03-29T06:03:13;1.2;;;1;;
24867;SDS011;12941;48.698;9.310;2024-03-29T06:04:18;1.2;;;1;;
24867;SDS011;12941;48.698;9.310;2024-03-29T06:05:18;1.2;;;1;;
24867;SDS011;12941;48.698;9.310;2024-03-29T06:06:23;1.2;;;1;;
24867;SDS011;12941;48.698;9.310;2024-03-29T06:07:23;1.2;;;1;;
24867;SDS011;12941;48.698;9.310;2024-03-29T06:08:28;0.7;;;0.7;;
24867;SDS011;12941;48.698;9.310;2024-03-29T06:09:33;0.7;;;0.7;;
24867;SDS011;12941;48.698;9.310;2024-03-29T06:10:33;0.7;;;0.7;;
24867;SDS011;12941;48.698;9.310;2024-03-29T06:11:38;0.7;;;0.7;;
24867;SDS011;12941;48.698;9.310;2024-03-29T06:12:38;2.1;;;1.7;;
24867;SDS011;12941;48.698;9.310;2024-03-29T06:13:43;2.1;;;1.7;;
24867;SDS011;12941;48.698;9.310;2024-03-29T06:14:48;2.1;;;1.7;;
24867;SDS011;12941;48.698;9.310;2024-03-29T06:15:48;2.1;;;1.7;;
24867;SDS011;12941;48.698;9.310;2024-03-29T06:16:48;2.1;;;1.7;;
24867;SDS011;12941;48.698;9.310;2024-03-29T06:17:53;1.3;;;1;;
24867;SDS011;12941;48.698;9.310;2024-03-29T06:18:53;1.3;;;1;;
24867;SDS011;12941;48.698;9.310;2024-03-29T06:19:58;1.3;;;1;;
24867;SDS011;12941;48.698;9.310;2024-03-29T06:20:58;1.3;;;1;;
24867;SDS011;12941;48.698;9.310;2024-03-29T06:21:58;1.3;;;1;;
24867;SDS011;12941;48.698;9.310;2024-03-29T06:23:03;1.6;;;1.5;;
24867;SDS011;12941;48.698;9.310;2024-03-29T06:24:03;1.6;;;1.5;;
24867;SDS011;12941;48.698;9.310;2024-03-29T06:25:08;1.6;;;1.5;;
24867;SDS011;12941;48.698;9.310;2024-03-29T06:26:08;1.6;;;1.5;;
24867;SDS011;12941;48.698;9.310;2024-03-29T06:27:13;1.6;;;1.5;;
24867;SDS011;12941;48.698;9.310;2024-03-29T06:28:13;1.8;;;1.3;;
24867;SDS011;12941;48.698;9.310;2024-03-29T06:29:18;1.8;;;1.3;;
24867;SDS011;12941;48.698;9.310;2024-03-29T06:30:23;1.8;;;1.3;;
24867;SDS011;12941;48.698;9.310;2024-03-29T06:31:23;1.8;;;1.3;;
24867;SDS011;12941;48.698;9.310;2024-03-29T06:32:28;1.8;;;1.3;;
24867;SDS011;12941;48.698;9.310;2024-03-29T06:33:28;1.3;;;0.8;;